Time;durP1;ratioP1;P1;durP2;ratioP2;P2;SDS_P1;SDS_P2;PMS_P1;PMS_P2;Temp;Humidity;BMP_temperature;BMP_pressure;BME280_temperature;BME280_humidity;BME280_pressure;Samples;Min_cycle;Max_cycle;Signal;HPM_P1;HPM_P2
2021/12/01 00:00:29;;;;;;;;;;;20.40;43.00;;;;;;4985581;28;19918;-73
2021/12/01 00:02:54;;;;;;;;;;;20.30;43.00;;;;;;4986882;28;19971;-74
2021/12/01 00:05:23;;;;;;;;;;;20.30;43.00;;;;;;4989426;28;20310;-74
2021/12/01 00:07:49;;;;;;;;;;;20.30;43.00;;;;;;4989871;28;19934;-74
2021/12/01 00:10:14;;;;;;;;;;;20.30;43.00;;;;;;4983838;28;19968;-74
2021/12/01 00:12:40;;;;;;;;;;;20.30;42.90;;;;;;4987035;28;19941;-74
2021/12/01 00:15:05;;;;;;;;;;;20.20;42.90;;;;;;4987890;28;19996;-74
2021/12/01 00:17:31;;;;;;;;;;;20.20;42.90;;;;;;4990085;28;19920;-73
2021/12/01 00:19:56;;;;;;;;;;;20.20;43.00;;;;;;4973031;28;19914;-74
2021/12/01 00:22:21;;;;;;;;;;;20.20;43.00;;;;;;4988551;28;19921;-73
2021/12/01 00:24:47;;;;;;;;;;;20.20;42.90;;;;;;4971396;28;20577;-73
2021/12/01 00:27:12;;;;;;;;;;;20.10;42.90;;;;;;4988453;28;20323;-73
2021/12/01 00:29:38;;;;;;;;;;;20.10;42.90;;;;;;4989966;28;20317;-73
2021/12/01 00:32:03;;;;;;;;;;;20.10;42.90;;;;;;4967256;28;19940;-73
2021/12/01 00:34:29;;;;;;;;;;;20.10;42.90;;;;;;4987623;28;19917;-74
2021/12/01 00:36:54;;;;;;;;;;;20.10;43.00;;;;;;4984360;28;19922;-74
2021/12/01 00:39:20;;;;;;;;;;;20.00;43.00;;;;;;4985153;28;20064;-74
2021/12/01 00:41:47;;;;;;;;;;;20.00;43.00;;;;;;4987885;28;20313;-74
2021/12/01 00:44:13;;;;;;;;;;;20.00;43.10;;;;;;4987926;28;19913;-74
2021/12/01 00:46:42;;;;;;;;;;;20.00;43.10;;;;;;4988561;28;20293;-73
2021/12/01 00:49:08;;;;;;;;;;;19.90;43.10;;;;;;4987569;28;19997;-73
2021/12/01 00:51:33;;;;;;;;;;;19.90;43.10;;;;;;4988127;28;20032;-74
2021/12/01 00:53:59;;;;;;;;;;;19.90;43.20;;;;;;4982629;28;19936;-73
2021/12/01 00:56:24;;;;;;;;;;;19.90;43.20;;;;;;4984747;28;19922;-73
2021/12/01 00:58:51;;;;;;;;;;;19.80;43.20;;;;;;4988196;28;19913;-73
2021/12/01 01:01:16;;;;;;;;;;;19.80;43.20;;;;;;4969876;28;19932;-73
2021/12/01 01:03:42;;;;;;;;;;;19.80;43.30;;;;;;4983892;28;20008;-74
2021/12/01 01:06:08;;;;;;;;;;;19.80;43.40;;;;;;4988301;28;19918;-74
2021/12/01 01:08:34;;;;;;;;;;;19.70;43.30;;;;;;4988939;28;19964;-74
2021/12/01 01:16:25;;;;;;;;;;;19.60;43.40;;;;;;4986303;28;19921;-73
2021/12/01 01:18:52;;;;;;;;;;;19.60;43.40;;;;;;4986828;28;19910;-74
2021/12/01 01:21:17;;;;;;;;;;;19.60;43.50;;;;;;4984983;28;20390;-73
2021/12/01 01:23:43;;;;;;;;;;;19.60;43.50;;;;;;4988956;28;19924;-73
2021/12/01 01:26:09;;;;;;;;;;;19.50;43.80;;;;;;4993328;28;19914;-73
2021/12/01 01:28:35;;;;;;;;;;;19.50;43.60;;;;;;4989606;28;19914;-73
2021/12/01 01:31:00;;;;;;;;;;;19.50;43.60;;;;;;4967702;28;19910;-73
2021/12/01 01:33:26;;;;;;;;;;;19.40;43.70;;;;;;5003274;28;19921;-74
2021/12/01 01:35:52;;;;;;;;;;;19.40;43.80;;;;;;4992348;28;19965;-74
2021/12/01 01:38:17;;;;;;;;;;;19.40;43.90;;;;;;4992205;28;19910;-74
2021/12/01 01:40:43;;;;;;;;;;;19.40;43.90;;;;;;4993154;28;19913;-74
2021/12/01 01:43:10;;;;;;;;;;;19.40;43.90;;;;;;4990064;28;19913;-74
2021/12/01 01:45:36;;;;;;;;;;;19.40;44.00;;;;;;4972175;28;19922;-73
2021/12/01 01:48:06;;;;;;;;;;;19.30;43.80;;;;;;4970020;28;19913;-74
2021/12/01 01:50:38;;;;;;;;;;;19.30;43.90;;;;;;4991200;28;19914;-74
2021/12/01 01:53:07;;;;;;;;;;;19.30;43.90;;;;;;4992099;28;19953;-74
2021/12/01 01:55:33;;;;;;;;;;;19.20;43.70;;;;;;4975021;28;19932;-74
2021/12/01 01:57:58;;;;;;;;;;;19.20;43.80;;;;;;4969364;28;20373;-74
2021/12/01 02:00:24;;;;;;;;;;;19.20;43.70;;;;;;4984154;28;19914;-74
2021/12/01 02:02:50;;;;;;;;;;;19.20;43.70;;;;;;4973965;28;20274;-74
2021/12/01 02:05:16;;;;;;;;;;;19.20;43.80;;;;;;4974932;28;19914;-74
2021/12/01 02:07:43;;;;;;;;;;;19.10;43.80;;;;;;4990570;28;19926;-74
2021/12/01 02:10:08;;;;;;;;;;;19.10;43.90;;;;;;4989479;28;19918;-74
2021/12/01 02:12:34;;;;;;;;;;;19.10;43.90;;;;;;4991620;28;20350;-74
2021/12/01 02:14:59;;;;;;;;;;;19.10;43.70;;;;;;4990885;28;19914;-73
2021/12/01 02:17:25;;;;;;;;;;;19.20;43.70;;;;;;4986102;28;19921;-73
2021/12/01 02:19:53;;;;;;;;;;;19.10;43.70;;;;;;4992069;28;19914;-74
2021/12/01 02:22:18;;;;;;;;;;;19.20;43.70;;;;;;4973156;28;20410;-74
2021/12/01 02:24:47;;;;;;;;;;;19.20;43.80;;;;;;4991443;28;20012;-73
2021/12/01 02:27:12;;;;;;;;;;;19.20;43.80;;;;;;4989834;28;20076;-74
2021/12/01 02:29:38;;;;;;;;;;;19.30;43.90;;;;;;4985452;28;20417;-74
2021/12/01 02:32:03;;;;;;;;;;;19.50;43.80;;;;;;4984644;28;19921;-74
2021/12/01 02:34:30;;;;;;;;;;;19.60;43.40;;;;;;4992040;28;19913;-74
2021/12/01 02:36:56;;;;;;;;;;;19.90;43.10;;;;;;4973841;28;19945;-74
2021/12/01 02:39:21;;;;;;;;;;;20.10;42.80;;;;;;4972768;28;20437;-74
2021/12/01 02:41:50;;;;;;;;;;;20.20;42.40;;;;;;4988920;28;19920;-74
2021/12/01 02:44:17;;;;;;;;;;;20.40;42.10;;;;;;4988192;28;19921;-74
2021/12/01 02:46:43;;;;;;;;;;;20.60;41.70;;;;;;4990338;28;20293;-74
2021/12/01 02:49:09;;;;;;;;;;;20.80;41.30;;;;;;4990625;28;19984;-74
2021/12/01 02:51:36;;;;;;;;;;;21.00;41.10;;;;;;4989313;28;19953;-74
2021/12/01 02:54:02;;;;;;;;;;;21.10;40.80;;;;;;4982063;28;20290;-75
2021/12/01 02:56:27;;;;;;;;;;;21.30;40.70;;;;;;4973943;28;19920;-75
2021/12/01 02:58:53;;;;;;;;;;;21.40;40.40;;;;;;4989953;28;19969;-74
2021/12/01 03:01:19;;;;;;;;;;;21.50;40.20;;;;;;4984745;28;19917;-74
2021/12/01 03:03:45;;;;;;;;;;;21.60;40.80;;;;;;4990068;28;19957;-74
2021/12/01 03:06:11;;;;;;;;;;;21.70;39.90;;;;;;4989530;28;20284;-73
2021/12/01 03:08:36;;;;;;;;;;;21.80;39.80;;;;;;4972971;28;19969;-74
2021/12/01 03:11:02;;;;;;;;;;;21.90;39.60;;;;;;4991003;28;19913;-74
2021/12/01 03:13:27;;;;;;;;;;;22.00;39.60;;;;;;4993468;28;19932;-74
2021/12/01 03:15:53;;;;;;;;;;;22.00;39.40;;;;;;4992552;28;19910;-74
2021/12/01 03:18:18;;;;;;;;;;;22.10;39.70;;;;;;4992292;28;20008;-74
2021/12/01 03:20:44;;;;;;;;;;;22.10;39.40;;;;;;4994141;28;20060;-75
2021/12/01 03:23:09;;;;;;;;;;;22.10;39.40;;;;;;4988768;28;19933;-75
2021/12/01 03:25:35;;;;;;;;;;;22.10;39.40;;;;;;4973231;28;19975;-75
2021/12/01 03:28:01;;;;;;;;;;;22.10;39.30;;;;;;4973609;28;20414;-75
2021/12/01 03:30:26;;;;;;;;;;;22.10;39.40;;;;;;4974118;28;19917;-74
2021/12/01 03:32:52;;;;;;;;;;;22.10;39.40;;;;;;4982668;28;20386;-74
2021/12/01 03:35:17;;;;;;;;;;;22.10;39.30;;;;;;4979802;28;20351;-74
2021/12/01 03:37:43;;;;;;;;;;;22.10;39.40;;;;;;4989406;28;19921;-74
2021/12/01 03:40:09;;;;;;;;;;;22.10;39.40;;;;;;4975831;28;20387;-74
2021/12/01 03:42:34;;;;;;;;;;;22.20;39.40;;;;;;4982814;28;20330;-74
2021/12/01 03:45:00;;;;;;;;;;;22.10;39.30;;;;;;4985162;28;20024;-74
2021/12/01 03:47:26;;;;;;;;;;;22.10;39.40;;;;;;4991270;28;19957;-74
2021/12/01 03:49:51;;;;;;;;;;;22.10;39.40;;;;;;5006714;28;19914;-74
2021/12/01 03:52:17;;;;;;;;;;;22.10;39.50;;;;;;4990687;28;19928;-74
2021/12/01 03:54:43;;;;;;;;;;;22.10;39.50;;;;;;4991421;28;19916;-75
2021/12/01 03:57:08;;;;;;;;;;;22.10;39.50;;;;;;4990716;28;19917;-74
2021/12/01 03:59:34;;;;;;;;;;;22.10;39.40;;;;;;5007787;28;19914;-74
2021/12/01 04:01:59;;;;;;;;;;;22.10;39.40;;;;;;4981676;28;19914;-74
2021/12/01 04:04:25;;;;;;;;;;;22.10;39.30;;;;;;4972343;28;19910;-74
2021/12/01 04:06:50;;;;;;;;;;;22.10;39.30;;;;;;4980894;28;19992;-74
2021/12/01 04:09:16;;;;;;;;;;;22.20;39.30;;;;;;4971866;28;19910;-74
2021/12/01 04:11:41;;;;;;;;;;;22.20;39.20;;;;;;4986244;28;19918;-75
2021/12/01 04:14:08;;;;;;;;;;;22.20;39.20;;;;;;4989960;28;19917;-75
2021/12/01 04:16:33;;;;;;;;;;;22.20;39.20;;;;;;4980526;28;19913;-75
2021/12/01 04:18:59;;;;;;;;;;;22.20;39.20;;;;;;4991187;28;20417;-74
2021/12/01 04:21:26;;;;;;;;;;;22.20;39.20;;;;;;4991872;28;20564;-74
2021/12/01 04:23:52;;;;;;;;;;;22.20;39.10;;;;;;5007072;28;19946;-75
2021/12/01 04:26:23;;;;;;;;;;;22.30;39.20;;;;;;4992942;28;19916;-74
2021/12/01 04:28:49;;;;;;;;;;;22.30;39.20;;;;;;4986660;28;19914;-74
2021/12/01 04:31:15;;;;;;;;;;;22.30;39.20;;;;;;4982328;28;20385;-74
2021/12/01 04:33:40;;;;;;;;;;;22.30;39.10;;;;;;4992302;28;19914;-74
2021/12/01 04:36:06;;;;;;;;;;;22.30;39.20;;;;;;4992639;28;19917;-74
2021/12/01 04:38:31;;;;;;;;;;;22.20;39.30;;;;;;4990617;28;19909;-74
2021/12/01 04:40:56;;;;;;;;;;;22.00;39.50;;;;;;4991318;28;19916;-74
2021/12/01 04:43:22;;;;;;;;;;;21.90;39.70;;;;;;4990659;28;19914;-74
2021/12/01 04:45:52;;;;;;;;;;;21.70;40.00;;;;;;5007503;28;20355;-74
2021/12/01 04:48:17;;;;;;;;;;;21.60;40.20;;;;;;5007298;28;19941;-74
2021/12/01 04:50:43;;;;;;;;;;;21.50;40.30;;;;;;4990395;28;20374;-74
2021/12/01 04:53:08;;;;;;;;;;;21.50;40.20;;;;;;4990391;28;19952;-74
2021/12/01 04:55:34;;;;;;;;;;;21.60;40.30;;;;;;4986538;28;20285;-74
2021/12/01 04:57:59;;;;;;;;;;;21.70;40.30;;;;;;4991587;28;20024;-74
2021/12/01 05:00:28;;;;;;;;;;;21.80;40.20;;;;;;4993999;28;19910;-75
2021/12/01 05:02:53;;;;;;;;;;;21.90;40.00;;;;;;4975167;28;19919;-74
2021/12/01 05:05:19;;;;;;;;;;;22.00;39.90;;;;;;4994580;28;19917;-74
2021/12/01 05:07:44;;;;;;;;;;;22.00;40.30;;;;;;5006144;28;19961;-74
2021/12/01 05:10:10;;;;;;;;;;;22.10;39.60;;;;;;4995352;28;19968;-74
2021/12/01 05:12:36;;;;;;;;;;;22.20;39.50;;;;;;4990662;28;19921;-74
2021/12/01 05:15:01;;;;;;;;;;;22.20;39.50;;;;;;4986521;28;19917;-73
2021/12/01 05:17:27;;;;;;;;;;;22.20;39.60;;;;;;4990978;28;20004;-74
2021/12/01 05:19:52;;;;;;;;;;;22.20;39.50;;;;;;4979567;28;19963;-74
2021/12/01 05:22:18;;;;;;;;;;;22.20;39.50;;;;;;5009548;28;19926;-75
2021/12/01 05:24:43;;;;;;;;;;;22.20;39.40;;;;;;4988934;28;19969;-74
2021/12/01 05:27:09;;;;;;;;;;;22.30;39.40;;;;;;4990605;28;19930;-74
2021/12/01 05:29:34;;;;;;;;;;;22.30;39.40;;;;;;4989150;28;19914;-75
2021/12/01 05:32:00;;;;;;;;;;;22.30;39.40;;;;;;5009964;28;19983;-75
2021/12/01 05:34:25;;;;;;;;;;;22.30;39.50;;;;;;4977930;28;19910;-74
2021/12/01 05:36:51;;;;;;;;;;;22.20;39.40;;;;;;4990084;28;19953;-74
2021/12/01 05:39:17;;;;;;;;;;;22.20;39.50;;;;;;4982591;28;19924;-74
2021/12/01 05:41:42;;;;;;;;;;;22.30;39.60;;;;;;4993580;28;19918;-74
2021/12/01 05:44:08;;;;;;;;;;;22.20;39.50;;;;;;4993652;28;19910;-74
2021/12/01 05:46:33;;;;;;;;;;;22.20;39.60;;;;;;5009959;28;20000;-74
2021/12/01 05:48:59;;;;;;;;;;;22.20;39.60;;;;;;4992836;28;19917;-74
2021/12/01 05:51:24;;;;;;;;;;;22.20;39.60;;;;;;4993300;28;19917;-74
2021/12/01 05:53:50;;;;;;;;;;;22.20;39.70;;;;;;5009538;28;19992;-74
2021/12/01 05:56:15;;;;;;;;;;;22.10;39.60;;;;;;4994877;28;19914;-74
2021/12/01 05:58:41;;;;;;;;;;;22.20;39.80;;;;;;4976775;28;19917;-74
2021/12/01 06:01:06;;;;;;;;;;;22.10;39.70;;;;;;4993394;28;19917;-74
2021/12/01 06:03:32;;;;;;;;;;;22.20;39.70;;;;;;4993594;28;19913;-74
2021/12/01 06:05:57;;;;;;;;;;;22.20;39.60;;;;;;4993181;28;19910;-75
2021/12/01 06:08:23;;;;;;;;;;;22.20;39.60;;;;;;4993004;28;20331;-74
2021/12/01 06:10:48;;;;;;;;;;;22.30;39.60;;;;;;4976962;28;19914;-74
2021/12/01 06:13:16;;;;;;;;;;;22.30;39.60;;;;;;4993011;28;19917;-74
2021/12/01 06:15:41;;;;;;;;;;;22.30;39.50;;;;;;4977560;28;20370;-74
2021/12/01 06:18:07;;;;;;;;;;;22.30;39.50;;;;;;4992997;28;19936;-75
2021/12/01 06:20:32;;;;;;;;;;;22.30;39.50;;;;;;5008901;28;19918;-75
2021/12/01 06:22:58;;;;;;;;;;;22.30;39.60;;;;;;5009422;28;20430;-74
2021/12/01 06:25:23;;;;;;;;;;;22.30;39.50;;;;;;5009782;28;19921;-74
2021/12/01 06:27:49;;;;;;;;;;;22.30;39.50;;;;;;4990226;28;19910;-74
2021/12/01 06:30:14;;;;;;;;;;;22.30;39.50;;;;;;4976109;28;19956;-74
2021/12/01 06:32:39;;;;;;;;;;;22.30;39.50;;;;;;4988709;28;20000;-74
2021/12/01 06:35:05;;;;;;;;;;;22.30;39.50;;;;;;4994522;28;19914;-74
2021/12/01 06:37:31;;;;;;;;;;;22.30;39.50;;;;;;4992552;28;20000;-74
2021/12/01 06:39:56;;;;;;;;;;;22.30;39.60;;;;;;4994143;28;19910;-74
2021/12/01 06:42:22;;;;;;;;;;;22.30;39.60;;;;;;4992434;28;20005;-74
2021/12/01 06:44:47;;;;;;;;;;;22.20;39.60;;;;;;4994127;28;20270;-74
2021/12/01 06:47:13;;;;;;;;;;;22.20;39.80;;;;;;4992449;28;19960;-74
2021/12/01 06:49:38;;;;;;;;;;;22.20;39.80;;;;;;4975281;28;19930;-74
2021/12/01 06:52:04;;;;;;;;;;;22.20;39.90;;;;;;4993236;28;19924;-75
2021/12/01 06:54:29;;;;;;;;;;;22.10;40.00;;;;;;4990048;28;19921;-74
2021/12/01 06:56:54;;;;;;;;;;;22.20;40.10;;;;;;4991254;28;19914;-74
2021/12/01 06:59:20;;;;;;;;;;;22.10;40.10;;;;;;4993860;28;19910;-74
2021/12/01 07:01:45;;;;;;;;;;;22.20;40.30;;;;;;4980563;28;20371;-74
2021/12/01 07:04:13;;;;;;;;;;;22.20;40.30;;;;;;4974418;28;19914;-74
2021/12/01 07:06:39;;;;;;;;;;;22.20;40.20;;;;;;4974178;28;19933;-73
2021/12/01 07:09:04;;;;;;;;;;;22.20;40.20;;;;;;4973930;28;19910;-74
2021/12/01 07:11:30;;;;;;;;;;;22.20;40.20;;;;;;4973131;28;19914;-74
2021/12/01 07:13:56;;;;;;;;;;;22.20;40.30;;;;;;4982966;28;19948;-74
2021/12/01 07:16:22;;;;;;;;;;;22.20;40.30;;;;;;5007296;28;19968;-74
2021/12/01 07:18:47;;;;;;;;;;;22.30;40.30;;;;;;4991676;28;20282;-74
2021/12/01 07:21:12;;;;;;;;;;;22.30;40.30;;;;;;4991192;28;19914;-74
2021/12/01 07:23:38;;;;;;;;;;;22.30;40.40;;;;;;4992597;28;20596;-74
2021/12/01 07:26:03;;;;;;;;;;;22.30;40.30;;;;;;4992121;28;19922;-74
2021/12/01 07:28:29;;;;;;;;;;;22.30;40.40;;;;;;5007296;28;19944;-74
2021/12/01 07:30:54;;;;;;;;;;;22.30;40.50;;;;;;4991509;28;19914;-74
2021/12/01 07:33:20;;;;;;;;;;;22.30;40.60;;;;;;4988043;28;20075;-74
2021/12/01 07:35:45;;;;;;;;;;;22.30;40.80;;;;;;4992133;28;20370;-74
2021/12/01 07:38:12;;;;;;;;;;;22.30;40.90;;;;;;4981768;28;20348;-74
2021/12/01 07:40:38;;;;;;;;;;;22.30;40.90;;;;;;4991527;28;20008;-74
2021/12/01 07:43:03;;;;;;;;;;;22.30;40.90;;;;;;5001560;28;20014;-74
2021/12/01 07:45:29;;;;;;;;;;;22.20;40.90;;;;;;4991005;28;19914;-74
2021/12/01 07:47:55;;;;;;;;;;;22.20;40.90;;;;;;4990226;28;19913;-74
2021/12/01 07:50:20;;;;;;;;;;;22.30;41.00;;;;;;4974221;28;19925;-73
2021/12/01 07:52:46;;;;;;;;;;;22.20;40.90;;;;;;4994854;28;20390;-74
2021/12/01 07:55:11;;;;;;;;;;;22.30;41.00;;;;;;4981482;28;20033;-74
2021/12/01 07:57:37;;;;;;;;;;;22.30;41.00;;;;;;5007096;28;19910;-75
2021/12/01 08:00:03;;;;;;;;;;;22.20;41.00;;;;;;4969645;28;20350;-73
2021/12/01 08:02:28;;;;;;;;;;;22.20;41.10;;;;;;4991385;28;19918;-74
2021/12/01 08:04:55;;;;;;;;;;;22.30;41.20;;;;;;5009402;28;19935;-74
2021/12/01 08:07:20;;;;;;;;;;;22.40;41.20;;;;;;4991081;28;19922;-74
2021/12/01 08:09:46;;;;;;;;;;;22.40;41.00;;;;;;4974978;28;19910;-74
2021/12/01 08:12:11;;;;;;;;;;;22.50;41.10;;;;;;5000017;28;19996;-74
2021/12/01 08:14:37;;;;;;;;;;;22.50;41.10;;;;;;4988306;28;20030;-75
2021/12/01 08:17:03;;;;;;;;;;;22.50;41.10;;;;;;4984421;28;19922;-75
2021/12/01 08:19:28;;;;;;;;;;;22.60;41.10;;;;;;4989413;28;20434;-74
2021/12/01 08:21:54;;;;;;;;;;;22.60;41.00;;;;;;4987740;28;19918;-74
2021/12/01 08:24:19;;;;;;;;;;;22.70;41.10;;;;;;4990029;28;19921;-74
2021/12/01 08:26:46;;;;;;;;;;;22.70;41.00;;;;;;4990671;28;19929;-75
2021/12/01 08:29:11;;;;;;;;;;;22.70;41.00;;;;;;4989340;28;19914;-75
2021/12/01 08:31:37;;;;;;;;;;;22.80;40.90;;;;;;5007417;28;19925;-75
2021/12/01 08:34:02;;;;;;;;;;;22.90;41.00;;;;;;4994546;28;20048;-74
2021/12/01 08:36:27;;;;;;;;;;;22.80;40.90;;;;;;4995505;28;19921;-74
2021/12/01 08:38:53;;;;;;;;;;;22.90;41.00;;;;;;4994730;28;20027;-74
2021/12/01 08:41:18;;;;;;;;;;;22.90;41.10;;;;;;4996506;28;19914;-73
2021/12/01 08:43:44;;;;;;;;;;;22.90;41.00;;;;;;4995071;28;20342;-74
2021/12/01 08:46:10;;;;;;;;;;;22.90;41.10;;;;;;4994897;28;19984;-75
2021/12/01 08:48:35;;;;;;;;;;;22.90;41.10;;;;;;4994668;28;19913;-74
2021/12/01 08:51:02;;;;;;;;;;;22.90;41.10;;;;;;4987843;28;19914;-75
2021/12/01 08:53:31;;;;;;;;;;;22.80;41.00;;;;;;4994848;28;19922;-75
2021/12/01 08:55:58;;;;;;;;;;;22.90;41.20;;;;;;4978900;28;19916;-75
2021/12/01 08:58:23;;;;;;;;;;;22.90;41.20;;;;;;4994494;28;19922;-75
2021/12/01 09:00:49;;;;;;;;;;;22.90;41.20;;;;;;4994442;28;19941;-74
2021/12/01 09:03:15;;;;;;;;;;;22.90;41.10;;;;;;4995845;28;20321;-74
2021/12/01 09:05:41;;;;;;;;;;;22.90;41.20;;;;;;4976360;28;20036;-74
2021/12/01 09:08:07;;;;;;;;;;;22.90;41.20;;;;;;4992665;28;19918;-75
2021/12/01 09:10:32;;;;;;;;;;;22.90;41.40;;;;;;4995572;28;19910;-75
2021/12/01 09:12:58;;;;;;;;;;;22.90;41.20;;;;;;5006177;28;20358;-75
2021/12/01 09:15:24;;;;;;;;;;;22.90;41.40;;;;;;4992135;28;19921;-75
2021/12/01 09:17:49;;;;;;;;;;;22.90;41.40;;;;;;4987905;28;19925;-74
2021/12/01 09:20:15;;;;;;;;;;;22.90;41.40;;;;;;4995022;28;19913;-74
2021/12/01 09:22:40;;;;;;;;;;;22.90;41.40;;;;;;4994421;28;19910;-74
2021/12/01 09:25:07;;;;;;;;;;;22.90;41.50;;;;;;4977303;28;20453;-74
2021/12/01 09:27:32;;;;;;;;;;;22.90;41.40;;;;;;4995511;28;20293;-74
2021/12/01 09:29:58;;;;;;;;;;;23.00;41.50;;;;;;4993882;28;19913;-74
2021/12/01 09:32:23;;;;;;;;;;;23.00;41.40;;;;;;4994037;28;19918;-75
2021/12/01 09:34:49;;;;;;;;;;;23.00;41.40;;;;;;4993245;28;20004;-75
2021/12/01 09:37:16;;;;;;;;;;;23.00;41.50;;;;;;4993222;28;19917;-74
2021/12/01 09:39:41;;;;;;;;;;;23.00;41.50;;;;;;5009216;28;19913;-74
2021/12/01 09:42:08;;;;;;;;;;;23.00;42.10;;;;;;5009714;28;19987;-73
2021/12/01 09:44:33;;;;;;;;;;;23.00;41.50;;;;;;4976784;28;19917;-74
2021/12/01 09:46:59;;;;;;;;;;;23.00;41.50;;;;;;4976871;28;19924;-74
2021/12/01 09:49:24;;;;;;;;;;;23.00;41.40;;;;;;4994863;28;19922;-73
2021/12/01 09:51:50;;;;;;;;;;;23.00;41.40;;;;;;4990165;28;19964;-74
2021/12/01 09:54:15;;;;;;;;;;;23.00;41.40;;;;;;4992717;28;19922;-73
2021/12/01 09:56:41;;;;;;;;;;;23.10;41.30;;;;;;4992491;28;20294;-74
2021/12/01 09:59:06;;;;;;;;;;;23.00;41.40;;;;;;4992788;28;19918;-74
2021/12/01 10:01:32;;;;;;;;;;;23.00;41.40;;;;;;4993522;28;19921;-75
2021/12/01 10:03:58;;;;;;;;;;;23.10;41.50;;;;;;4992525;28;19913;-74
2021/12/01 10:06:24;;;;;;;;;;;23.10;41.50;;;;;;4992858;28;19930;-74
2021/12/01 10:08:50;;;;;;;;;;;23.00;41.20;;;;;;5008542;28;19914;-74
2021/12/01 10:11:17;;;;;;;;;;;23.00;41.40;;;;;;4993250;28;19979;-73
2021/12/01 10:13:43;;;;;;;;;;;23.00;41.40;;;;;;4992508;28;19960;-74
2021/12/01 10:16:09;;;;;;;;;;;23.00;41.40;;;;;;4993544;28;20016;-74
2021/12/01 10:18:36;;;;;;;;;;;23.00;41.40;;;;;;4976842;28;19972;-75
2021/12/01 10:21:04;;;;;;;;;;;23.10;41.60;;;;;;4992603;28;20002;-75
2021/12/01 10:23:30;;;;;;;;;;;23.10;41.60;;;;;;5008897;28;19918;-74
2021/12/01 10:25:56;;;;;;;;;;;23.10;41.60;;;;;;4992970;28;19937;-75
2021/12/01 10:28:38;;;;;;;;;;;23.10;41.60;;;;;;4983785;28;19910;-75
2021/12/01 10:31:03;;;;;;;;;;;23.10;41.60;;;;;;4997518;28;20594;-75
2021/12/01 10:33:29;;;;;;;;;;;23.10;41.60;;;;;;4987302;28;19940;-74
2021/12/01 10:35:56;;;;;;;;;;;23.10;41.50;;;;;;5008620;28;19920;-75
2021/12/01 10:38:28;;;;;;;;;;;23.10;41.60;;;;;;4977663;28;19963;-75
2021/12/01 10:41:01;;;;;;;;;;;23.10;41.50;;;;;;4990032;28;19918;-75
2021/12/01 10:43:33;;;;;;;;;;;23.10;41.50;;;;;;4992658;28;19913;-75
2021/12/01 10:46:04;;;;;;;;;;;23.10;41.50;;;;;;5006752;28;20301;-75
2021/12/01 10:48:29;;;;;;;;;;;23.10;41.60;;;;;;4991950;28;19940;-75
2021/12/01 10:50:55;;;;;;;;;;;23.10;41.50;;;;;;5008713;28;20000;-74
2021/12/01 10:53:23;;;;;;;;;;;23.10;41.50;;;;;;4991836;28;19933;-75
2021/12/01 10:55:56;;;;;;;;;;;23.20;41.60;;;;;;4993106;28;20384;-75
2021/12/01 10:58:21;;;;;;;;;;;23.20;41.60;;;;;;4976077;28;19976;-74
2021/12/01 11:00:47;;;;;;;;;;;23.20;41.50;;;;;;4992607;28;20363;-74
2021/12/01 11:03:14;;;;;;;;;;;23.20;41.50;;;;;;4976487;28;19921;-74
2021/12/01 11:05:40;;;;;;;;;;;23.20;41.60;;;;;;4975871;28;19921;-74
2021/12/01 11:08:25;;;;;;;;;;;23.20;41.50;;;;;;5001776;28;19921;-74
2021/12/01 11:10:50;;;;;;;;;;;23.20;41.60;;;;;;4992053;28;19964;-75
2021/12/01 11:13:18;;;;;;;;;;;23.20;42.20;;;;;;4991341;28;19922;-74
2021/12/01 11:15:44;;;;;;;;;;;23.20;41.60;;;;;;4973740;28;19918;-75
2021/12/01 11:18:18;;;;;;;;;;;23.20;41.60;;;;;;4976047;28;19936;-74
2021/12/01 11:20:45;;;;;;;;;;;23.20;41.60;;;;;;4992522;28;20382;-74
2021/12/01 11:23:10;;;;;;;;;;;23.20;41.50;;;;;;4993236;28;19936;-75
2021/12/01 11:25:36;;;;;;;;;;;23.30;41.50;;;;;;4993553;28;20377;-75
2021/12/01 11:28:03;;;;;;;;;;;23.20;41.50;;;;;;4992367;28;19917;-75
2021/12/01 11:30:28;;;;;;;;;;;23.30;41.60;;;;;;4991416;28;19918;-74
2021/12/01 11:32:54;;;;;;;;;;;23.30;41.60;;;;;;5007476;28;19921;-75
2021/12/01 11:35:19;;;;;;;;;;;23.30;41.50;;;;;;4991595;28;20393;-75
2021/12/01 11:37:45;;;;;;;;;;;23.30;41.60;;;;;;5007766;28;19922;-74
2021/12/01 11:40:10;;;;;;;;;;;23.30;41.50;;;;;;4996115;28;19952;-75
2021/12/01 11:42:36;;;;;;;;;;;23.30;41.60;;;;;;4994378;28;19917;-75
2021/12/01 11:45:02;;;;;;;;;;;23.30;41.70;;;;;;4987726;28;19920;-74
2021/12/01 11:47:27;;;;;;;;;;;23.30;41.60;;;;;;5008113;28;19920;-74
2021/12/01 11:49:53;;;;;;;;;;;23.30;41.70;;;;;;4991368;28;19913;-74
2021/12/01 11:52:18;;;;;;;;;;;23.30;41.60;;;;;;4984788;28;19965;-74
2021/12/01 11:54:44;;;;;;;;;;;23.30;42.20;;;;;;4991120;28;19918;-74
2021/12/01 11:57:09;;;;;;;;;;;23.30;41.60;;;;;;4990724;28;19929;-74
2021/12/01 11:59:40;;;;;;;;;;;23.30;41.40;;;;;;4975564;28;19933;-74
2021/12/01 12:02:09;;;;;;;;;;;23.30;41.50;;;;;;4974651;28;20478;-74
2021/12/01 12:04:37;;;;;;;;;;;23.30;41.50;;;;;;4993239;28;19924;-74
2021/12/01 12:07:06;;;;;;;;;;;23.30;41.40;;;;;;4991704;28;20331;-74
2021/12/01 12:09:32;;;;;;;;;;;23.30;41.20;;;;;;4990923;28;19964;-74
2021/12/01 12:12:00;;;;;;;;;;;23.40;41.40;;;;;;4992096;28;20682;-74
2021/12/01 12:14:30;;;;;;;;;;;23.40;41.30;;;;;;4992113;28;19984;-73
2021/12/01 12:17:12;;;;;;;;;;;23.30;41.30;;;;;;4976180;28;19913;-75
2021/12/01 12:19:48;;;;;;;;;;;23.40;41.40;;;;;;5002331;28;19921;-74
2021/12/01 12:22:15;;;;;;;;;;;23.40;41.40;;;;;;4988911;28;20372;-74
2021/12/01 12:24:55;;;;;;;;;;;23.40;41.40;;;;;;4991059;28;19914;-75
2021/12/01 12:27:30;;;;;;;;;;;23.40;41.40;;;;;;4963482;28;19960;-75
2021/12/01 12:29:57;;;;;;;;;;;23.30;41.40;;;;;;4985895;28;19914;-74
2021/12/01 12:32:23;;;;;;;;;;;23.30;41.60;;;;;;4989321;28;19928;-75
2021/12/01 12:34:49;;;;;;;;;;;23.30;41.60;;;;;;4988868;28;19921;-74
2021/12/01 12:37:21;;;;;;;;;;;23.30;41.50;;;;;;4991193;28;19925;-74
2021/12/01 12:39:47;;;;;;;;;;;23.40;41.70;;;;;;4990879;28;19925;-74
2021/12/01 12:42:13;;;;;;;;;;;23.40;41.80;;;;;;4975412;28;19918;-74
2021/12/01 12:44:48;;;;;;;;;;;23.40;41.80;;;;;;4975521;28;19910;-74
2021/12/01 12:47:16;;;;;;;;;;;23.40;41.70;;;;;;4989281;28;19990;-75
2021/12/01 12:49:46;;;;;;;;;;;23.40;41.70;;;;;;4992911;28;19910;-74
2021/12/01 12:52:24;;;;;;;;;;;23.40;41.70;;;;;;4990420;28;19918;-75
2021/12/01 12:54:59;;;;;;;;;;;23.40;41.80;;;;;;4991534;28;20334;-75
2021/12/01 12:57:25;;;;;;;;;;;23.40;41.60;;;;;;4984339;28;19924;-75
2021/12/01 13:00:10;;;;;;;;;;;23.40;41.60;;;;;;4973514;28;19960;-74
2021/12/01 13:02:35;;;;;;;;;;;23.40;41.70;;;;;;4991001;28;19913;-74
2021/12/01 13:05:01;;;;;;;;;;;23.40;41.60;;;;;;4997767;28;19961;-74
2021/12/01 13:07:31;;;;;;;;;;;23.40;41.50;;;;;;4989274;28;19949;-74
2021/12/01 13:10:11;;;;;;;;;;;23.50;41.60;;;;;;4989918;28;19917;-74
2021/12/01 13:12:43;;;;;;;;;;;23.50;41.60;;;;;;4993282;28;19917;-74
2021/12/01 13:15:27;;;;;;;;;;;23.50;41.40;;;;;;4991965;28;19949;-73
2021/12/01 13:17:54;;;;;;;;;;;23.50;41.50;;;;;;4992217;28;20318;-74
2021/12/01 13:20:20;;;;;;;;;;;23.40;41.60;;;;;;4990519;28;20374;-74
2021/12/01 13:23:01;;;;;;;;;;;23.40;41.60;;;;;;4993713;28;19920;-74
2021/12/01 13:25:27;;;;;;;;;;;23.40;41.50;;;;;;4988821;28;19994;-74
2021/12/01 13:27:52;;;;;;;;;;;23.40;41.60;;;;;;4986824;28;19917;-74
2021/12/01 13:30:17;;;;;;;;;;;23.50;41.70;;;;;;4974122;28;20022;-74
2021/12/01 13:32:44;;;;;;;;;;;23.50;41.70;;;;;;4994586;28;19957;-74
2021/12/01 13:35:09;;;;;;;;;;;23.50;41.70;;;;;;4993264;28;19967;-75
2021/12/01 13:37:35;;;;;;;;;;;23.40;41.60;;;;;;4990006;28;19961;-74
2021/12/01 13:40:06;;;;;;;;;;;23.50;41.80;;;;;;4991182;28;19965;-74
2021/12/01 13:42:32;;;;;;;;;;;23.40;41.70;;;;;;4990373;28;19946;-75
2021/12/01 13:44:57;;;;;;;;;;;23.40;41.70;;;;;;4988565;28;19917;-74
2021/12/01 13:47:23;;;;;;;;;;;23.40;41.60;;;;;;4991426;28;19968;-74
2021/12/01 13:49:53;;;;;;;;;;;23.50;41.80;;;;;;5008721;28;19918;-75
2021/12/01 13:52:31;;;;;;;;;;;23.50;41.70;;;;;;4988565;28;20020;-74
2021/12/01 13:55:12;;;;;;;;;;;23.50;41.70;;;;;;4994079;28;19921;-74
2021/12/01 13:57:38;;;;;;;;;;;23.50;41.80;;;;;;4989581;28;19921;-75
2021/12/01 14:00:04;;;;;;;;;;;23.50;41.70;;;;;;4993160;28;19925;-75
2021/12/01 14:02:30;;;;;;;;;;;23.40;41.70;;;;;;4993456;28;19933;-75
2021/12/01 14:04:57;;;;;;;;;;;23.50;41.70;;;;;;4975169;28;19914;-75
2021/12/01 14:07:23;;;;;;;;;;;23.50;41.70;;;;;;4975395;28;19948;-74
2021/12/01 14:10:06;;;;;;;;;;;23.50;41.70;;;;;;4976508;28;20351;-74
2021/12/01 14:12:42;;;;;;;;;;;23.50;41.80;;;;;;4991848;28;19926;-74
2021/12/01 14:15:07;;;;;;;;;;;23.50;41.70;;;;;;4976702;28;19913;-74
2021/12/01 14:17:32;;;;;;;;;;;23.50;41.70;;;;;;5007714;28;20255;-75